Time;durP1;ratioP1;P1;durP2;ratioP2;P2;SDS_P1;SDS_P2;PMS_P1;PMS_P2;Temp;Humidity;BMP_temperature;BMP_pressure;BME280_temperature;BME280_humidity;BME280_pressure;Samples;Min_cycle;Max_cycle;Signal;HPM_P1;HPM_P2
2023/11/09 00:02:01;;;;;;;4.75;3.00;;;;;;;12.38;65.68;99938.81;5111443;28;20032;-39
2023/11/09 00:04:26;;;;;;;4.40;3.00;;;;;;;12.24;65.58;99919.34;5111459;28;20081;-39
2023/11/09 00:06:52;;;;;;;4.18;3.20;;;;;;;12.50;65.12;99939.78;5111424;28;20057;-40
2023/11/09 00:09:17;;;;;;;4.90;2.80;;;;;;;12.59;63.84;99936.88;5111471;28;20130;-40
2023/11/09 00:11:46;;;;;;;2.92;2.40;;;;;;;12.53;63.80;99941.22;5110941;28;20028;-40
2023/11/09 00:14:15;;;;;;;3.33;2.70;;;;;;;12.32;64.38;99945.00;5111219;28;20072;-39
2023/11/09 00:16:41;;;;;;;5.25;2.97;;;;;;;12.69;63.32;99948.72;5111223;28;20031;-38
2023/11/09 00:19:06;;;;;;;3.78;2.88;;;;;;;12.48;63.15;99939.16;5111475;28;20170;-40
2023/11/09 00:21:32;;;;;;;2.85;2.42;;;;;;;12.15;64.36;99944.63;5111303;28;20115;-40
2023/11/09 00:23:58;;;;;;;4.28;2.67;;;;;;;12.58;62.24;99940.56;5111262;28;20080;-38
2023/11/09 00:26:24;;;;;;;4.43;2.80;;;;;;;12.61;61.82;99938.31;5111031;28;20049;-40
2023/11/09 00:28:50;;;;;;;3.90;2.70;;;;;;;12.74;61.23;99955.28;5111180;28;20027;-40
2023/11/09 00:31:17;;;;;;;4.13;2.70;;;;;;;12.63;61.42;99948.78;5110857;28;20075;-40
2023/11/09 00:33:43;;;;;;;4.47;2.45;;;;;;;12.40;62.81;99941.28;5110972;28;20035;-39
2023/11/09 00:36:09;;;;;;;3.58;2.47;;;;;;;12.01;63.70;99935.00;5111138;28;20023;-40
2023/11/09 00:38:34;;;;;;;6.32;2.50;;;;;;;12.12;63.73;99937.03;5110825;28;20519;-38
2023/11/09 00:40:59;;;;;;;4.88;2.50;;;;;;;12.07;63.48;99944.81;5110185;28;20022;-40
2023/11/09 00:43:26;;;;;;;4.32;2.45;;;;;;;12.21;62.16;99941.09;5110879;28;20100;-40
2023/11/09 00:45:51;;;;;;;2.72;2.30;;;;;;;12.05;61.79;99936.22;5110904;28;20040;-39
2023/11/09 00:48:16;;;;;;;2.97;2.40;;;;;;;12.18;61.00;99951.38;5110550;28;20065;-39
2023/11/09 00:50:42;;;;;;;4.38;2.55;;;;;;;12.21;61.92;99943.78;5110690;28;20149;-39
2023/11/09 00:53:07;;;;;;;2.35;2.15;;;;;;;12.31;60.98;99938.00;5110641;28;20027;-40
2023/11/09 00:55:33;;;;;;;3.60;2.58;;;;;;;11.85;61.39;99931.69;5110846;28;20027;-40
2023/11/09 00:57:58;;;;;;;4.80;2.40;;;;;;;11.93;61.98;99946.69;5110459;28;20092;-40
2023/11/09 01:00:24;;;;;;;2.75;2.30;;;;;;;12.01;61.58;99938.47;5110774;28;20045;-40
2023/11/09 01:02:51;;;;;;;2.42;2.20;;;;;;;12.01;61.81;99949.13;5110778;28;20065;-40
2023/11/09 01:05:16;;;;;;;2.90;2.40;;;;;;;12.33;61.27;99957.28;5110887;28;20020;-39
2023/11/09 01:07:42;;;;;;;4.15;2.50;;;;;;;12.21;61.24;99958.97;5110396;28;20529;-40
2023/11/09 01:10:07;;;;;;;3.67;2.50;;;;;;;12.44;60.49;99963.84;5110889;28;20075;-39
2023/11/09 01:12:33;;;;;;;3.92;2.40;;;;;;;12.63;60.16;99962.94;5110586;28;20038;-40
2023/11/09 01:14:58;;;;;;;4.40;2.40;;;;;;;12.44;60.42;99964.66;5120762;28;20042;-39
2023/11/09 01:17:27;;;;;;;3.17;2.33;;;;;;;12.21;60.28;99974.97;5112507;28;20348;-39
2023/11/09 01:19:53;;;;;;;3.08;2.25;;;;;;;11.76;61.66;99974.78;5131004;28;20137;-39
2023/11/09 01:22:19;;;;;;;4.13;2.50;;;;;;;11.79;62.05;99975.19;5114970;28;20427;-40
2023/11/09 01:24:45;;;;;;;4.25;2.60;;;;;;;12.00;61.06;99981.38;5110760;28;20440;-40
2023/11/09 01:27:10;;;;;;;2.85;2.20;;;;;;;12.24;61.21;99977.22;5111150;28;20027;-39
2023/11/09 01:29:36;;;;;;;4.00;2.00;;;;;;;11.71;60.64;99978.88;5110963;28;20016;-38
2023/11/09 01:32:02;;;;;;;2.70;2.22;;;;;;;11.76;60.69;99988.13;5110878;28;20473;-39
2023/11/09 01:34:27;;;;;;;3.03;2.20;;;;;;;11.34;60.71;99977.63;5110922;28;20028;-36
2023/11/09 01:36:53;;;;;;;3.97;1.88;;;;;;;11.26;61.57;99978.63;5110998;28;20026;-39
2023/11/09 01:39:22;;;;;;;3.58;2.00;;;;;;;11.58;59.77;99986.06;5111120;28;20023;-39
2023/11/09 01:41:48;;;;;;;4.05;2.00;;;;;;;11.77;58.92;99979.91;5110902;28;20480;-39
2023/11/09 01:44:14;;;;;;;2.22;2.00;;;;;;;11.53;59.62;99973.34;5110773;28;20023;-39
2023/11/09 01:46:43;;;;;;;4.72;2.15;;;;;;;11.51;59.00;99983.38;5110685;28;20044;-39
2023/11/09 01:49:10;;;;;;;2.22;1.80;;;;;;;11.57;59.13;99984.41;5110787;28;20055;-39
2023/11/09 01:51:37;;;;;;;2.47;1.70;;;;;;;11.59;58.93;99985.03;5111074;28;20047;-38
2023/11/09 01:54:03;;;;;;;1.88;1.73;;;;;;;11.26;60.61;99983.97;5114670;28;20024;-39
2023/11/09 01:56:29;;;;;;;1.70;1.50;;;;;;;11.26;59.68;99986.63;5114560;28;20096;-39
2023/11/09 01:58:56;;;;;;;2.80;1.58;;;;;;;11.49;59.09;99982.78;5114446;28;20049;-39
2023/11/09 02:01:25;;;;;;;2.10;1.73;;;;;;;11.69;59.07;99988.94;5114626;28;20046;-39
2023/11/09 02:03:51;;;;;;;2.17;1.57;;;;;;;11.53;59.11;99987.47;5114335;28;20055;-39
2023/11/09 02:06:18;;;;;;;2.42;1.60;;;;;;;11.53;58.95;100000.00;5114294;28;20390;-39
2023/11/09 02:08:44;;;;;;;3.67;1.60;;;;;;;11.11;60.32;99993.97;5114407;28;20062;-39
2023/11/09 02:11:10;;;;;;;4.72;2.50;;;;;;;10.94;60.41;99998.81;5114352;28;20402;-38
2023/11/09 02:13:35;;;;;;;1.90;1.50;;;;;;;10.81;60.69;99988.94;5114420;28;20019;-38
2023/11/09 02:16:01;;;;;;;2.03;1.70;;;;;;;11.07;61.09;99992.72;5114632;28;20379;-40
2023/11/09 02:18:27;;;;;;;1.90;1.63;;;;;;;10.96;60.75;99994.94;5114352;28;20059;-40
2023/11/09 02:20:53;;;;;;;2.28;1.77;;;;;;;11.27;59.48;100001.59;5114373;28;20054;-40
2023/11/09 02:23:23;;;;;;;1.58;1.40;;;;;;;11.28;59.75;99997.09;5113988;28;20027;-40
2023/11/09 02:25:49;;;;;;;1.92;1.58;;;;;;;11.24;59.74;99998.50;5114093;28;20035;-40
2023/11/09 02:28:15;;;;;;;3.47;1.40;;;;;;;11.05;59.44;99995.59;5114321;28;20016;-40
2023/11/09 02:30:41;;;;;;;1.50;1.40;;;;;;;10.96;60.70;100010.09;5113184;27;20379;-41
2023/11/09 02:33:09;;;;;;;1.38;1.17;;;;;;;10.67;60.18;100006.69;5133011;27;20055;-40
2023/11/09 02:35:34;;;;;;;3.72;1.67;;;;;;;10.93;59.83;100003.34;5133460;27;20071;-39
2023/11/09 02:38:00;;;;;;;2.63;1.73;;;;;;;11.27;59.33;99996.28;5132891;27;20023;-40
2023/11/09 02:40:25;;;;;;;2.28;1.50;;;;;;;11.28;59.63;100007.75;5120458;27;20031;-39
2023/11/09 02:42:51;;;;;;;2.75;1.70;;;;;;;11.20;59.56;100007.94;5112592;28;20015;-40
2023/11/09 02:45:17;;;;;;;1.80;1.60;;;;;;;11.18;59.27;100009.97;5113124;28;20027;-39
2023/11/09 02:47:42;;;;;;;1.80;1.60;;;;;;;10.95;60.09;100008.47;5113394;28;20047;-40
2023/11/09 02:50:09;;;;;;;2.42;1.50;;;;;;;10.87;59.76;100011.28;5113691;28;20028;-40
2023/11/09 02:52:34;;;;;;;2.35;1.60;;;;;;;10.88;60.09;100020.94;5114276;28;20020;-40
2023/11/09 02:55:00;;;;;;;3.65;1.60;;;;;;;10.75;61.07;100021.69;5113434;28;20016;-40
2023/11/09 02:57:27;;;;;;;2.95;1.65;;;;;;;10.83;60.77;100021.50;5113817;28;20459;-39
2023/11/09 02:59:54;;;;;;;3.25;1.70;;;;;;;10.77;60.67;100027.63;5113255;28;20016;-40
2023/11/09 03:02:19;;;;;;;2.55;1.60;;;;;;;10.76;60.97;100026.00;5113304;28;20106;-40
2023/11/09 03:04:46;;;;;;;4.47;2.22;;;;;;;10.87;60.31;100025.44;5112672;28;20153;-39
2023/11/09 03:07:13;;;;;;;2.13;1.65;;;;;;;10.75;60.92;100030.47;5113457;28;20050;-40
2023/11/09 03:09:38;;;;;;;2.95;1.60;;;;;;;10.81;60.89;100036.84;5113266;28;20465;-40
2023/11/09 03:12:07;;;;;;;2.88;1.70;;;;;;;10.72;60.62;100038.06;5113162;28;20171;-40
2023/11/09 03:14:34;;;;;;;2.03;1.73;;;;;;;10.76;60.48;100034.00;5113187;28;20023;-38
2023/11/09 03:17:06;;;;;;;3.40;1.70;;;;;;;10.59;61.02;100033.50;5113084;28;20035;-40
2023/11/09 03:19:31;;;;;;;3.65;1.90;;;;;;;10.94;60.43;100028.94;5112593;28;20023;-39
2023/11/09 03:21:57;;;;;;;2.25;1.80;;;;;;;10.92;60.69;100040.81;5112356;28;20560;-36
2023/11/09 03:24:22;;;;;;;2.50;1.80;;;;;;;10.83;61.19;100049.97;5112760;28;20088;-40
2023/11/09 03:26:48;;;;;;;6.10;2.47;;;;;;;10.92;60.71;100048.78;5112998;28;20057;-40
2023/11/09 03:29:13;;;;;;;4.70;1.92;;;;;;;11.25;59.99;100042.75;5112656;28;20348;-40
2023/11/09 03:31:39;;;;;;;3.22;2.15;;;;;;;11.18;59.98;100053.41;5112933;28;20061;-40
2023/11/09 03:34:04;;;;;;;3.00;1.88;;;;;;;10.80;61.42;100042.41;5113053;28;20112;-40
2023/11/09 03:36:29;;;;;;;3.90;2.15;;;;;;;10.36;61.62;100039.09;5112972;28;20074;-40
2023/11/09 03:38:55;;;;;;;2.85;1.80;;;;;;;10.14;62.38;100046.25;5112543;28;20077;-40
2023/11/09 03:41:23;;;;;;;2.15;1.80;;;;;;;9.85;63.61;100039.28;5112663;28;20134;-40
2023/11/09 03:43:48;;;;;;;2.95;1.88;;;;;;;9.98;63.35;100042.03;5112514;28;20483;-40
2023/11/09 03:46:14;;;;;;;4.75;1.92;;;;;;;10.12;62.67;100035.81;5112087;28;20028;-38
2023/11/09 03:48:40;;;;;;;3.05;2.05;;;;;;;9.98;62.64;100047.38;5112692;28;20028;-40
2023/11/09 03:51:05;;;;;;;3.10;1.80;;;;;;;9.90;63.50;100043.00;5112503;28;20034;-40
2023/11/09 03:53:30;;;;;;;2.63;1.80;;;;;;;10.02;62.69;100053.13;5112341;28;20446;-40
2023/11/09 03:55:56;;;;;;;1.75;1.60;;;;;;;10.04;61.98;100069.69;5112561;28;20031;-39
2023/11/09 03:58:21;;;;;;;6.03;4.57;;;;;;;10.29;62.35;100076.22;5112340;28;20024;-40
2023/11/09 04:00:47;;;;;;;3.17;2.05;;;;;;;10.36;60.97;100079.81;5112397;28;20026;-37
2023/11/09 04:03:14;;;;;;;4.55;3.30;;;;;;;10.81;60.41;100074.13;5112278;28;20020;-40
2023/11/09 04:05:40;;;;;;;3.38;2.10;;;;;;;10.55;60.38;100070.31;5111974;28;20020;-40
2023/11/09 04:08:05;;;;;;;2.33;1.85;;;;;;;10.16;62.29;100073.47;5111999;28;20042;-40
2023/11/09 04:10:31;;;;;;;3.20;2.08;;;;;;;10.37;61.22;100077.97;5111988;28;20019;-40
2023/11/09 04:12:56;;;;;;;3.55;1.98;;;;;;;10.28;62.02;100063.97;5112038;28;20414;-40
2023/11/09 04:15:22;;;;;;;2.60;1.95;;;;;;;10.15;62.10;100069.19;5111235;28;20031;-39
2023/11/09 04:17:47;;;;;;;2.97;2.03;;;;;;;10.21;62.17;100067.59;5112046;28;20019;-39
2023/11/09 04:20:13;;;;;;;2.80;2.00;;;;;;;10.23;62.22;100076.19;5111845;28;20379;-39
2023/11/09 04:22:38;;;;;;;2.60;2.10;;;;;;;10.38;62.11;100071.63;5111967;28;20031;-38
2023/11/09 04:25:04;;;;;;;2.70;1.90;;;;;;;10.37;61.99;100077.97;5111778;28;20024;-39
2023/11/09 04:27:29;;;;;;;3.00;1.90;;;;;;;10.38;61.93;100079.63;5111990;28;20080;-39
2023/11/09 04:29:56;;;;;;;3.85;2.20;;;;;;;10.72;61.10;100088.66;5093454;28;20019;-39
2023/11/09 04:32:21;;;;;;;2.88;2.42;;;;;;;10.39;61.25;100081.25;5111595;28;20023;-39
2023/11/09 04:34:46;;;;;;;2.88;2.15;;;;;;;10.75;60.43;100082.91;5116230;27;20100;-39
2023/11/09 04:37:15;;;;;;;2.60;2.10;;;;;;;10.49;61.15;100092.38;5118873;27;20663;-39
2023/11/09 04:39:46;;;;;;;6.43;2.33;;;;;;;10.24;62.17;100088.47;5096978;28;20080;-39
2023/11/09 04:42:18;;;;;;;3.90;2.25;;;;;;;10.43;61.29;100090.47;5091168;28;20032;-38
2023/11/09 04:44:47;;;;;;;2.80;2.20;;;;;;;10.46;61.11;100090.09;5091189;28;20022;-40
2023/11/09 04:47:14;;;;;;;3.13;2.40;;;;;;;10.34;61.69;100097.81;5110820;28;20092;-40
2023/11/09 04:49:45;;;;;;;2.92;2.33;;;;;;;10.10;62.10;100098.19;5111560;28;20019;-37
2023/11/09 04:52:19;;;;;;;2.97;2.45;;;;;;;10.18;61.63;100106.00;5111293;28;20027;-39
2023/11/09 04:54:56;;;;;;;4.05;2.35;;;;;;;10.12;61.91;100104.94;5111263;28;20027;-39
2023/11/09 05:08:23;;;;;;;4.85;2.70;;;;;;;10.02;63.03;100109.78;5129776;28;20054;-41
2023/11/09 05:10:49;;;;;;;4.65;2.60;;;;;;;10.46;61.59;100114.03;5119185;28;20088;-40
2023/11/09 05:13:14;;;;;;;3.83;2.85;;;;;;;10.42;61.98;100115.44;5118711;28;20023;-40
2023/11/09 05:15:40;;;;;;;4.28;2.50;;;;;;;10.20;61.66;100117.28;5128595;28;20028;-40
2023/11/09 05:18:05;;;;;;;5.55;2.50;;;;;;;10.62;61.27;100118.25;5111137;28;20054;-40
2023/11/09 05:20:31;;;;;;;3.13;2.30;;;;;;;10.74;59.78;100126.53;5121218;28;20046;-39
2023/11/09 05:22:56;;;;;;;3.22;2.40;;;;;;;10.72;60.31;100126.72;5115290;28;20024;-41
2023/11/09 05:25:23;;;;;;;3.13;2.47;;;;;;;11.03;58.92;100136.13;5111409;28;20096;-40
2023/11/09 05:27:49;;;;;;;3.60;2.75;;;;;;;11.00;59.73;100127.69;5113918;28;20028;-41
2023/11/09 05:30:16;;;;;;;4.30;2.55;;;;;;;11.07;59.06;100120.56;5115219;28;20024;-40
2023/11/09 05:32:44;;;;;;;3.20;2.33;;;;;;;11.13;59.03;100135.75;5115476;28;20020;-42
2023/11/09 05:35:10;;;;;;;3.88;2.47;;;;;;;11.19;57.93;100134.97;5114679;28;20523;-41
2023/11/09 05:37:37;;;;;;;3.78;2.38;;;;;;;12.02;56.12;100150.03;5115039;28;20026;-42
2023/11/09 05:40:07;;;;;;;3.03;2.33;;;;;;;12.49;54.49;100141.00;5117872;27;20034;-40
2023/11/09 05:42:41;;;;;;;3.05;2.63;;;;;;;12.73;53.58;100154.75;5107795;27;20023;-41
2023/11/09 05:45:07;;;;;;;2.63;2.20;;;;;;;12.51;53.58;100159.50;5114792;28;20024;-41
2023/11/09 05:47:33;;;;;;;2.60;2.20;;;;;;;12.90;52.77;100163.94;5121795;27;20036;-40
2023/11/09 05:49:59;;;;;;;15.95;8.82;;;;;;;14.17;67.64;100176.00;5100006;28;20034;-40
2023/11/09 05:52:25;;;;;;;6.25;3.90;;;;;;;14.83;57.63;100170.13;5115049;28;20145;-42
2023/11/09 05:54:50;;;;;;;5.85;3.35;;;;;;;15.01;49.47;100160.47;5112198;27;20106;-41
2023/11/09 05:57:16;;;;;;;5.18;3.00;;;;;;;14.84;48.12;100168.28;5114824;28;20035;-44
2023/11/09 05:59:41;;;;;;;3.53;2.47;;;;;;;14.79;47.63;100173.47;5114740;28;20390;-46
2023/11/09 06:02:07;;;;;;;30.73;8.07;;;;;;;14.59;48.40;100173.66;5115180;28;20520;-41
2023/11/09 06:04:36;;;;;;;8.02;3.95;;;;;;;14.68;47.72;100180.38;5114763;28;20027;-41
2023/11/09 06:07:02;;;;;;;9.03;4.00;;;;;;;15.02;46.82;100181.69;5113748;28;20023;-42
2023/11/09 06:09:29;;;;;;;12.13;4.38;;;;;;;14.87;46.51;100178.56;5114138;28;20327;-43
2023/11/09 06:11:55;;;;;;;13.30;5.30;;;;;;;15.54;45.60;100177.81;5114298;28;20019;-42
2023/11/09 06:14:20;;;;;;;4.20;2.67;;;;;;;16.71;47.48;100188.09;5113770;28;20023;-38
2023/11/09 06:16:46;;;;;;;8.30;3.75;;;;;;;17.19;48.22;100168.22;5112277;28;20026;-42
2023/11/09 06:19:14;;;;;;;5.35;3.40;;;;;;;16.32;44.98;100170.78;5113858;28;20027;-41
2023/11/09 06:21:40;;;;;;;11.13;4.80;;;;;;;16.23;43.29;100176.47;5115124;28;20043;-42
2023/11/09 06:24:07;;;;;;;8.75;3.88;;;;;;;16.40;43.97;100170.44;5115171;28;20076;-40
2023/11/09 06:26:33;;;;;;;10.40;3.28;;;;;;;15.80;43.63;100163.25;5114943;28;20030;-41
2023/11/09 06:28:58;;;;;;;4.93;2.97;;;;;;;14.94;44.26;100167.75;5114950;28;20019;-39
2023/11/09 06:31:26;;;;;;;7.93;3.33;;;;;;;15.01;44.42;100180.03;5114968;28;20047;-41
2023/11/09 06:33:54;;;;;;;14.15;4.97;;;;;;;15.46;44.81;100184.31;5114709;28;20027;-40
2023/11/09 06:36:22;;;;;;;4.72;2.47;;;;;;;16.39;43.08;100184.88;5122631;27;20031;-42
2023/11/09 06:38:48;;;;;;;11.40;4.55;;;;;;;17.11;41.45;100176.63;5123681;27;20463;-42
2023/11/09 06:41:14;;;;;;;3.60;2.70;;;;;;;16.45;42.71;100180.47;5124049;27;20039;-41
2023/11/09 06:43:41;;;;;;;9.18;4.00;;;;;;;16.83;41.92;100182.75;5127144;27;20107;-42
2023/11/09 06:46:07;;;;;;;4.45;2.90;;;;;;;16.42;42.04;100179.88;5122576;27;20105;-41
2023/11/09 06:48:33;;;;;;;6.28;3.67;;;;;;;16.47;42.69;100173.84;5124240;27;20024;-40
2023/11/09 06:50:59;;;;;;;10.35;4.50;;;;;;;15.59;44.90;100186.84;5123523;27;20173;-42
2023/11/09 06:53:25;;;;;;;4.60;2.92;;;;;;;15.77;43.85;100183.31;5114309;28;20015;-41
2023/11/09 06:55:51;;;;;;;5.97;2.90;;;;;;;16.50;43.69;100181.41;5114398;28;20050;-43
2023/11/09 06:58:17;;;;;;;4.95;2.60;;;;;;;17.42;41.87;100179.16;5114482;28;20525;-42
2023/11/09 07:00:44;;;;;;;5.80;2.70;;;;;;;17.31;41.50;100183.53;5114227;28;20054;-42
2023/11/09 07:03:09;;;;;;;4.35;2.72;;;;;;;17.39;41.45;100186.66;5113317;28;20080;-40
2023/11/09 07:05:39;;;;;;;3.83;2.70;;;;;;;17.50;41.31;100186.88;5113109;28;20027;-41
2023/11/09 07:08:04;;;;;;;;;;;;;;;18.12;40.22;100192.38;5113967;28;20046;-40
2023/11/09 07:10:30;;;;;;;3.30;2.40;;;;;;;18.19;39.03;100188.72;5113662;28;20291;-44
2023/11/09 07:12:56;;;;;;;3.65;2.53;;;;;;;18.04;39.70;100184.69;5113159;28;20506;-41
2023/11/09 07:15:26;;;;;;;3.83;2.60;;;;;;;18.05;39.15;100185.50;5113180;28;20016;-41
2023/11/09 07:17:52;;;;;;;;;;;;;;;18.77;38.26;100198.28;5113138;28;20027;-41
2023/11/09 07:20:19;;;;;;;3.53;2.38;;;;;;;18.78;38.13;100188.31;5112931;28;19912;-40
2023/11/09 07:22:44;;;;;;;3.92;2.22;;;;;;;18.27;38.72;100197.22;5112568;28;20063;-40
2023/11/09 07:25:10;;;;;;;3.15;2.40;;;;;;;18.70;37.66;100198.47;5112841;28;20062;-42
2023/11/09 07:27:36;;;;;;;4.20;2.60;;;;;;;18.40;38.43;100179.91;5113186;28;20028;-42
2023/11/09 07:30:02;;;;;;;2.92;2.33;;;;;;;18.04;38.74;100191.97;5113030;28;20018;-41
2023/11/09 07:32:28;;;;;;;4.35;3.05;;;;;;;18.15;38.90;100193.78;5112637;28;20042;-43
2023/11/09 07:34:54;;;;;;;4.75;2.70;;;;;;;18.64;38.52;100202.13;5112751;28;20396;-40
2023/11/09 07:37:20;;;;;;;19.27;6.72;;;;;;;18.78;38.35;100205.31;5094732;28;20032;-40
2023/11/09 07:39:45;;;;;;;4.65;2.88;;;;;;;19.28;36.41;100212.50;5112397;28;20030;-40
2023/11/09 07:42:11;;;;;;;9.93;3.60;;;;;;;20.01;36.27;100201.53;5112705;28;20015;-41
2023/11/09 07:44:36;;;;;;;5.45;2.70;;;;;;;19.33;36.68;100201.00;5112844;28;20156;-38
2023/11/09 07:47:02;;;;;;;3.72;2.20;;;;;;;19.83;36.26;100208.06;5112417;28;20050;-41
2023/11/09 07:49:30;;;;;;;6.85;3.65;;;;;;;20.18;35.43;100206.84;5112647;28;20024;-41
2023/11/09 07:51:58;;;;;;;5.45;2.90;;;;;;;19.49;35.81;100210.09;5112832;28;20019;-40
2023/11/09 07:54:23;;;;;;;3.08;2.45;;;;;;;20.46;34.21;100204.91;5112689;28;20300;-38
2023/11/09 07:56:49;;;;;;;4.70;2.28;;;;;;;21.17;33.17;100210.03;5112510;28;20031;-42
2023/11/09 07:59:14;;;;;;;2.47;2.10;;;;;;;21.57;32.38;100207.78;5112610;28;20042;-40
2023/11/09 08:01:40;;;;;;;2.42;2.22;;;;;;;20.79;32.36;100208.41;5112401;28;20016;-40
2023/11/09 08:04:06;;;;;;;3.30;2.50;;;;;;;20.13;33.84;100205.97;5112419;28;20084;-40
2023/11/09 08:06:32;;;;;;;4.32;2.58;;;;;;;20.87;33.56;100211.47;5112370;28;20076;-42
2023/11/09 08:08:59;;;;;;;3.03;2.28;;;;;;;21.04;33.53;100214.00;5112194;28;20020;-41
2023/11/09 08:11:26;;;;;;;4.55;2.13;;;;;;;20.61;33.64;100210.44;5112396;28;20034;-40
2023/11/09 08:13:52;;;;;;;3.17;2.00;;;;;;;21.29;32.34;100215.22;5112209;28;20027;-40
2023/11/09 08:16:18;;;;;;;3.00;2.00;;;;;;;21.58;31.90;100210.22;5112189;28;20027;-39
2023/11/09 08:18:43;;;;;;;2.83;2.00;;;;;;;21.34;32.00;100212.53;5112123;28;20023;-39
2023/11/09 08:21:09;;;;;;;3.05;2.25;;;;;;;21.89;31.90;100214.94;5111823;28;20016;-41
2023/11/09 08:23:36;;;;;;;2.22;1.88;;;;;;;21.33;32.56;100218.22;5111598;28;20058;-40
2023/11/09 08:26:04;;;;;;;2.47;1.70;;;;;;;21.07;32.15;100220.78;5111842;28;20016;-41
2023/11/09 08:28:29;;;;;;;4.05;2.00;;;;;;;20.33;33.46;100224.25;5111647;28;20382;-40
2023/11/09 08:30:55;;;;;;;2.20;1.73;;;;;;;20.61;32.59;100223.97;5111660;28;20020;-40
2023/11/09 08:33:24;;;;;;;3.35;2.10;;;;;;;20.15;33.84;100239.75;5111498;28;20027;-41
2023/11/09 08:35:52;;;;;;;3.33;1.95;;;;;;;20.49;33.57;100231.44;5111390;28;20393;-40
2023/11/09 08:38:18;;;;;;;4.00;2.17;;;;;;;20.93;32.23;100235.84;5111777;28;20025;-42
2023/11/09 08:40:48;;;;;;;2.97;1.80;;;;;;;20.90;32.66;100226.34;5111400;28;20090;-41
2023/11/09 08:43:13;;;;;;;2.78;1.85;;;;;;;20.85;32.32;100232.53;5111699;28;20023;-46
2023/11/09 08:45:40;;;;;;;2.50;1.90;;;;;;;20.35;32.93;100232.91;5111503;28;20108;-39
2023/11/09 08:48:07;;;;;;;3.00;1.80;;;;;;;20.27;33.14;100226.88;5111397;28;20051;-41
2023/11/09 08:50:34;;;;;;;2.00;1.80;;;;;;;19.66;34.11;100227.03;5111971;28;20467;-41
2023/11/09 08:52:59;;;;;;;2.22;1.77;;;;;;;20.14;33.73;100221.09;5112279;28;20107;-38
2023/11/09 08:55:25;;;;;;;2.55;1.85;;;;;;;19.85;34.23;100218.63;5111881;28;20153;-40
2023/11/09 08:57:51;;;;;;;4.15;1.70;;;;;;;19.72;35.17;100220.66;5111653;28;20020;-40
2023/11/09 09:00:17;;;;;;;2.75;1.85;;;;;;;19.68;34.25;100213.28;5111348;28;20085;-39
2023/11/09 09:02:51;;;;;;;3.20;1.90;;;;;;;20.26;33.83;100213.66;5110882;28;20023;-41
2023/11/09 09:05:26;;;;;;;2.15;1.80;;;;;;;20.67;32.46;100217.53;5111431;28;20023;-37
2023/11/09 09:07:53;;;;;;;2.13;1.50;;;;;;;20.64;32.51;100220.75;5111349;28;20051;-41
2023/11/09 09:10:23;;;;;;;3.45;1.80;;;;;;;20.05;33.54;100221.56;5111614;28;20024;-41
2023/11/09 09:12:51;;;;;;;3.08;1.80;;;;;;;19.66;34.09;100220.81;5111561;28;20507;-41
2023/11/09 09:15:17;;;;;;;1.73;1.50;;;;;;;20.37;33.28;100217.25;5111150;28;20530;-39
2023/11/09 09:17:43;;;;;;;4.85;1.92;;;;;;;20.28;32.85;100208.81;5111332;28;20415;-38
2023/11/09 09:20:15;;;;;;;2.42;1.60;;;;;;;20.48;32.25;100210.84;5110868;28;20024;-41
2023/11/09 09:22:45;;;;;;;1.83;1.65;;;;;;;20.88;31.13;100206.84;5111129;28;20036;-39
2023/11/09 09:25:10;;;;;;;1.75;1.60;;;;;;;20.40;31.59;100211.34;5111162;28;20256;-40
2023/11/09 09:27:40;;;;;;;2.00;1.48;;;;;;;20.47;31.12;100201.13;5111569;28;20108;-40
2023/11/09 09:30:10;;;;;;;1.92;1.42;;;;;;;20.68;30.44;100205.66;5111118;28;20379;-39
2023/11/09 09:32:45;;;;;;;1.70;1.60;;;;;;;21.02;29.93;100204.53;5111078;28;20019;-40
2023/11/09 09:35:12;;;;;;;4.28;1.70;;;;;;;20.93;30.27;100201.50;5110771;28;20496;-37
2023/11/09 09:37:39;;;;;;;2.50;1.83;;;;;;;20.48;30.91;100206.25;5110814;28;20031;-43
2023/11/09 09:40:15;;;;;;;3.42;2.20;;;;;;;20.36;30.45;100207.53;5110414;28;20040;-40
2023/11/09 09:42:49;;;;;;;4.97;3.10;;;;;;;21.13;29.90;100206.19;5110950;28;20034;-42
2023/11/09 09:45:15;;;;;;;4.75;3.17;;;;;;;21.24;30.00;100204.38;5111045;28;20099;-41
2023/11/09 09:47:52;;;;;;;2.42;1.73;;;;;;;21.52;29.55;100205.88;5111001;28;20490;-44
2023/11/09 09:50:24;;;;;;;2.33;1.63;;;;;;;21.78;29.82;100195.94;5110801;28;20023;-43
2023/11/09 09:52:52;;;;;;;3.40;2.00;;;;;;;21.91;29.67;100205.44;5110994;28;21203;-40
2023/11/09 09:55:21;;;;;;;2.13;1.80;;;;;;;21.26;28.55;100202.22;5111206;28;20024;-41
2023/11/09 09:57:47;;;;;;;3.00;1.95;;;;;;;21.50;29.64;100193.69;5111091;28;20051;-40
2023/11/09 10:00:31;;;;;;;2.40;1.70;;;;;;;21.04;29.12;100197.78;5110939;28;20028;-40
2023/11/09 10:02:59;;;;;;;2.60;1.80;;;;;;;20.93;29.15;100193.38;5110726;28;20027;-39
2023/11/09 10:05:27;;;;;;;2.70;2.05;;;;;;;20.97;29.97;100191.78;5110836;28;20094;-42
2023/11/09 10:08:10;;;;;;;4.50;3.05;;;;;;;20.73;30.27;100193.22;5110861;28;20387;-43
2023/11/09 10:10:52;;;;;;;2.75;1.70;;;;;;;21.06;29.90;100192.91;5110711;28;20046;-40
2023/11/09 10:13:20;;;;;;;2.38;1.90;;;;;;;21.18;29.15;100181.06;5111030;28;20030;-39
2023/11/09 10:15:54;;;;;;;4.80;1.60;;;;;;;21.00;29.64;100185.84;5114295;28;20023;-39
2023/11/09 10:18:27;;;;;;;3.33;2.40;;;;;;;21.16;30.27;100189.44;5114275;28;20042;-41
2023/11/09 10:20:55;;;;;;;1.98;1.77;;;;;;;21.31;28.71;100183.28;5114393;28;20023;-42
2023/11/09 10:23:21;;;;;;;5.65;2.72;;;;;;;20.88;29.37;100187.91;5114206;28;20102;-40
2023/11/09 10:25:51;;;;;;;5.53;2.72;;;;;;;21.40;30.45;100179.00;5114487;28;20032;-40
2023/11/09 10:28:16;;;;;;;4.40;1.90;;;;;;;22.05;29.12;100178.66;5114126;28;20034;-43
2023/11/09 10:30:45;;;;;;;3.30;1.75;;;;;;;22.70;28.70;100186.28;5114364;28;20032;-42
2023/11/09 10:33:17;;;;;;;5.68;1.80;;;;;;;23.07;28.20;100188.66;5114331;28;20103;-42
2023/11/09 10:35:44;;;;;;;2.60;1.70;;;;;;;23.39;26.74;100188.28;5114363;28;20019;-41
2023/11/09 10:38:17;;;;;;;1.30;1.17;;;;;;;22.74;25.59;100173.81;5114250;28;20040;-39
2023/11/09 10:40:43;;;;;;;2.38;1.42;;;;;;;22.92;25.53;100183.25;5113770;28;20097;-41
2023/11/09 10:43:14;;;;;;;2.13;1.35;;;;;;;23.07;25.87;100177.81;5113985;28;20251;-38
2023/11/09 10:45:42;;;;;;;2.80;1.90;;;;;;;22.79;25.47;100168.34;5113881;28;20034;-41
2023/11/09 10:48:17;;;;;;;3.93;1.80;;;;;;;22.54;26.28;100166.50;5113786;28;20072;-40
2023/11/09 10:50:47;;;;;;;3.08;2.33;;;;;;;22.51;26.97;100167.84;5113964;28;20027;-38
2023/11/09 10:53:23;;;;;;;2.42;1.65;;;;;;;22.55;24.72;100158.09;5113757;28;20020;-40
2023/11/09 10:55:59;;;;;;;1.95;1.52;;;;;;;22.31;25.34;100162.44;5113598;28;20153;-39
2023/11/09 10:58:25;;;;;;;4.03;2.47;;;;;;;22.63;25.50;100160.22;5113354;28;20076;-39
2023/11/09 11:00:53;;;;;;;5.78;2.40;;;;;;;23.01;25.80;100154.47;5113342;28;20079;-41
2023/11/09 11:03:25;;;;;;;3.15;1.50;;;;;;;23.39;25.48;100160.31;5113533;28;20034;-41
2023/11/09 11:05:57;;;;;;;2.20;1.52;;;;;;;23.69;24.82;100161.25;5113211;28;20024;-40
2023/11/09 11:08:26;;;;;;;3.42;1.90;;;;;;;23.99;24.89;100160.28;5113711;28;20012;-42
2023/11/09 11:10:52;;;;;;;2.92;1.80;;;;;;;23.98;23.11;100155.94;5113183;28;20511;-39
2023/11/09 11:13:19;;;;;;;2.70;1.33;;;;;;;23.53;24.00;100157.81;5113359;28;20024;-39
2023/11/09 11:16:27;;;;;;;1.80;1.15;;;;;;;23.67;22.94;100152.59;5113345;28;20016;-41
2023/11/09 11:19:16;;;;;;;2.08;1.33;;;;;;;22.67;23.49;100149.66;5113258;28;20030;-38
2023/11/09 11:21:45;;;;;;;2.75;1.33;;;;;;;23.11;24.20;100151.72;5113461;28;20414;-42
2023/11/09 11:24:10;;;;;;;;;;;;;;;22.33;23.90;100141.28;5113787;28;20074;-43
2023/11/09 11:26:53;;;;;;;1.15;1.02;;;;;;;22.83;23.16;100147.75;5112831;28;20446;-44
2023/11/09 11:29:18;;;;;;;2.50;1.10;;;;;;;22.81;23.39;100147.22;5113092;28;20051;-40
2023/11/09 11:31:46;;;;;;;1.85;1.17;;;;;;;23.23;22.36;100146.00;5112941;28;20027;-40
2023/11/09 11:34:12;;;;;;;1.77;1.45;;;;;;;23.16;23.31;100143.56;5112726;28;20019;-42
2023/11/09 11:36:40;;;;;;;2.13;1.50;;;;;;;23.18;22.67;100149.53;5113338;28;20019;-40
2023/11/09 11:39:36;;;;;;;1.77;1.40;;;;;;;22.89;22.02;100148.53;5112640;28;20420;-41